createdAt,value
2023-03-04T00:02:03.293Z,98745.59
2023-03-04T00:05:07.009Z,98744.59
2023-03-04T00:08:09.787Z,98741.94
2023-03-04T00:11:13.892Z,98748.25
2023-03-04T00:14:16.710Z,98746.41
2023-03-04T00:17:19.464Z,98748.50
2023-03-04T00:20:22.215Z,98748.28
2023-03-04T00:23:25.373Z,98753.19
2023-03-04T00:26:29.574Z,98744.47
2023-03-04T00:29:32.324Z,98750.78
2023-03-04T00:32:35.105Z,98750.97
2023-03-04T00:35:37.875Z,98756.66
2023-03-04T00:38:40.743Z,98759.53
2023-03-04T00:41:44.762Z,98746.94
2023-03-04T00:44:47.546Z,98751.38
2023-03-04T00:47:50.260Z,98756.28
2023-03-04T00:50:54.039Z,98752.22
2023-03-04T00:53:58.516Z,98743.47
2023-03-04T00:57:03.999Z,98751.81
2023-03-04T01:00:08.219Z,98754.66
2023-03-04T01:03:11.100Z,98750.00
2023-03-04T01:06:14.233Z,98743.91
2023-03-04T01:09:17.087Z,98746.53
2023-03-04T01:12:21.553Z,98742.91
2023-03-04T01:15:24.812Z,98732.91
2023-03-04T01:18:28.909Z,98733.56
2023-03-04T01:21:31.793Z,98740.47
2023-03-04T01:24:34.670Z,98739.84
2023-03-04T01:27:38.885Z,98730.69
2023-03-04T01:30:41.724Z,98734.34
2023-03-04T01:33:44.492Z,98734.38
2023-03-04T01:36:47.409Z,98728.84
2023-03-04T01:39:50.392Z,98725.22
2023-03-04T01:42:54.587Z,98726.44
2023-03-04T01:45:59.353Z,98731.94
2023-03-04T01:49:02.381Z,98727.44
2023-03-04T01:52:05.303Z,98719.53
2023-03-04T01:55:16.517Z,98719.13
2023-03-04T01:58:20.716Z,98720.13
2023-03-04T02:01:23.666Z,98731.88
2023-03-04T02:04:29.345Z,98724.56
2023-03-04T02:07:32.505Z,98723.31
2023-03-04T02:10:36.109Z,98725.34
2023-03-04T02:13:40.360Z,98721.88
2023-03-04T02:16:43.162Z,98722.47
2023-03-04T02:19:53.250Z,98717.59
2023-03-04T02:23:04.670Z,98723.47
2023-03-04T02:26:19.549Z,98714.88
2023-03-04T02:29:22.557Z,98710.63
2023-03-04T02:32:25.464Z,98709.03
2023-03-04T02:35:29.018Z,98711.72
2023-03-04T02:38:31.861Z,98717.00
2023-03-04T02:41:36.121Z,98713.16
2023-03-04T02:44:40.251Z,98721.50
2023-03-04T02:47:43.113Z,98719.47
2023-03-04T02:50:50.918Z,98722.34
2023-03-04T02:53:54.220Z,98716.63
2023-03-04T02:57:01.718Z,98722.31
2023-03-04T03:00:05.541Z,98722.31
2023-03-04T03:03:08.735Z,98712.72
2023-03-04T03:06:11.622Z,98718.22
2023-03-04T03:09:14.512Z,98716.38
2023-03-04T03:12:18.772Z,98719.06
2023-03-04T03:15:21.907Z,98718.44
2023-03-04T03:18:24.686Z,98720.91
2023-03-04T03:21:27.701Z,98721.97
2023-03-04T03:24:30.541Z,98721.75
2023-03-04T03:27:34.884Z,98723.97
2023-03-04T03:30:37.752Z,98721.97
2023-03-04T03:33:40.609Z,98722.16
2023-03-04T03:36:43.525Z,98713.22
2023-03-04T03:39:46.401Z,98707.13
2023-03-04T03:42:50.787Z,98713.22
2023-03-04T03:45:53.712Z,98714.25
2023-03-04T03:48:56.507Z,98713.03
2023-03-04T03:51:59.378Z,98714.84
2023-03-04T03:55:03.009Z,98709.16
2023-03-04T03:58:07.646Z,98715.66
2023-03-04T04:01:10.630Z,98713.41
2023-03-04T04:04:13.721Z,98709.16
2023-03-04T04:07:16.629Z,98711.78
2023-03-04T04:10:20.572Z,98714.00
2023-03-04T04:13:24.698Z,98719.72
2023-03-04T04:16:27.749Z,98722.97
2023-03-04T04:19:30.640Z,98722.31
2023-03-04T04:22:33.464Z,98720.13
2023-03-04T04:25:36.269Z,98717.44
2023-03-04T04:28:40.504Z,98716.22
2023-03-04T04:31:43.462Z,98718.44
2023-03-04T04:34:46.299Z,98723.13
2023-03-04T04:37:49.223Z,98719.06
2023-03-04T04:40:52.029Z,98725.34
2023-03-04T04:43:56.234Z,98727.38
2023-03-04T04:46:59.031Z,98729.78
2023-03-04T04:50:02.202Z,98728.78
2023-03-04T04:53:05.031Z,98723.88
2023-03-04T04:56:12.594Z,98718.75
2023-03-04T04:59:16.892Z,98722.63
2023-03-04T05:02:19.705Z,98719.38
2023-03-04T05:05:22.477Z,98734.47
2023-03-04T05:08:25.283Z,98726.75
2023-03-04T05:11:28.065Z,98731.78
2023-03-04T05:14:32.333Z,98739.25
2023-03-04T05:17:35.137Z,98738.84
2023-03-04T05:20:37.977Z,98743.47
2023-03-04T05:23:44.528Z,98744.50
2023-03-04T05:26:47.308Z,98741.25
2023-03-04T05:29:51.446Z,98746.94
2023-03-04T05:32:54.286Z,98746.25
2023-03-04T05:35:57.047Z,98752.94
2023-03-04T05:38:59.953Z,98746.81
2023-03-04T05:42:02.687Z,98745.63
2023-03-04T05:45:08.436Z,98755.00
2023-03-04T05:48:11.435Z,98755.66
2023-03-04T05:51:14.336Z,98754.44
2023-03-04T05:54:17.271Z,98757.22
2023-03-04T05:57:20.118Z,98764.50
2023-03-04T06:00:24.296Z,98763.28
2023-03-04T06:03:27.092Z,98764.03
2023-03-04T06:06:29.978Z,98766.63
2023-03-04T06:09:32.887Z,98766.06
2023-03-04T06:12:35.676Z,98765.03
2023-03-04T06:15:40.968Z,98760.16
2023-03-04T06:18:44.138Z,98770.84
2023-03-04T06:21:47.067Z,98774.41
2023-03-04T06:24:49.976Z,98784.38
2023-03-04T06:27:54.762Z,98785.91
2023-03-04T06:30:59.417Z,98789.09
2023-03-04T06:34:02.278Z,98786.97
2023-03-04T06:37:05.113Z,98789.56
2023-03-04T06:40:09.171Z,98793.53
2023-03-04T06:43:11.984Z,98794.31
2023-03-04T06:46:16.296Z,98797.50
2023-03-04T06:49:19.201Z,98797.53
2023-03-04T06:52:22.164Z,98805.84
2023-03-04T06:55:25.054Z,98806.16
2023-03-04T06:58:28.048Z,98808.31
2023-03-04T07:01:32.170Z,98812.59
2023-03-04T07:04:34.967Z,98811.59
2023-03-04T07:07:37.874Z,98814.69
2023-03-04T07:10:40.734Z,98817.53
2023-03-04T07:13:43.922Z,98821.59
2023-03-04T07:16:48.174Z,98818.16
2023-03-04T07:19:50.981Z,98824.09
2023-03-04T07:22:53.792Z,98826.72
2023-03-04T07:25:59.379Z,98831.00
2023-03-04T07:29:02.536Z,98831.78
2023-03-04T07:32:10.112Z,98835.66
2023-03-04T07:35:13.027Z,98835.03
2023-03-04T07:38:15.702Z,98836.47
2023-03-04T07:41:19.746Z,98840.13
2023-03-04T07:44:22.777Z,98849.69
2023-03-04T07:47:27.023Z,98851.53
2023-03-04T07:50:30.054Z,98850.91
2023-03-04T07:53:33.062Z,98857.03
2023-03-04T07:56:36.110Z,98855.19
2023-03-04T07:59:38.840Z,98850.88
2023-03-04T08:02:43.424Z,98852.31
2023-03-04T08:05:46.431Z,98854.75
2023-03-04T08:08:49.726Z,98848.41
2023-03-04T08:11:52.694Z,98860.41
2023-03-04T08:14:55.420Z,98863.28
2023-03-04T08:17:59.488Z,98866.53
2023-03-04T08:21:02.323Z,98865.69
2023-03-04T08:24:08.454Z,98867.75
2023-03-04T08:27:11.779Z,98868.13
2023-03-04T08:30:14.981Z,98868.78
2023-03-04T08:33:19.081Z,98873.03
2023-03-04T08:36:22.358Z,98869.56
2023-03-04T08:39:25.099Z,98870.56
2023-03-04T08:42:27.856Z,98875.47
2023-03-04T08:45:30.719Z,98875.88
2023-03-04T08:48:35.318Z,98875.84
2023-03-04T08:51:38.085Z,98875.69
2023-03-04T08:54:40.868Z,98868.34
2023-03-04T08:57:43.606Z,98873.00
2023-03-04T09:00:49.452Z,98870.56
2023-03-04T09:03:53.769Z,98874.19
2023-03-04T09:06:56.646Z,98878.47
2023-03-04T09:09:59.543Z,98883.16
2023-03-04T09:13:02.428Z,98880.06
2023-03-04T09:16:10.495Z,98875.38
2023-03-04T09:19:14.692Z,98886.34
2023-03-04T09:22:17.617Z,98890.00
2023-03-04T09:25:20.373Z,98882.03
2023-03-04T09:28:23.088Z,98887.94
2023-03-04T09:31:26.793Z,98880.75
2023-03-04T09:34:31.041Z,98876.47
2023-03-04T09:37:33.889Z,98879.06
2023-03-04T09:40:42.272Z,98875.41
2023-03-04T09:43:46.442Z,98874.13
2023-03-04T09:46:50.244Z,98876.97
2023-03-04T09:49:59.343Z,98867.91
2023-03-04T09:53:17.344Z,98872.19
2023-03-04T09:56:20.771Z,98871.75
2023-03-04T09:59:26.878Z,98874.53
2023-03-04T10:02:43.165Z,98871.13
2023-03-04T10:05:54.929Z,98875.81
2023-03-04T10:09:02.194Z,98870.31
2023-03-04T10:12:11.971Z,98870.00
2023-03-04T10:15:24.788Z,98867.41
2023-03-04T10:18:33.396Z,98864.09
2023-03-04T10:21:43.182Z,98859.75
2023-03-04T10:24:47.674Z,98862.16
2023-03-04T10:27:53.862Z,98859.63
2023-03-04T10:31:03.425Z,98859.13
2023-03-04T10:34:07.322Z,98849.06
2023-03-04T10:37:12.198Z,98846.41
2023-03-04T10:40:26.690Z,98848.59
2023-03-04T10:43:30.779Z,98841.66
2023-03-04T10:46:33.644Z,98848.03
2023-03-04T10:49:51.634Z,98849.00
2023-03-04T10:52:56.809Z,98849.06
2023-03-04T10:55:59.671Z,98842.50
2023-03-04T10:59:32.177Z,98839.16
2023-03-04T11:02:36.713Z,98834.50
2023-03-04T11:05:39.634Z,98824.75
2023-03-04T11:08:44.167Z,98828.41
2023-03-04T11:11:46.973Z,98827.00
2023-03-04T11:14:51.948Z,98823.28
2023-03-04T11:17:58.081Z,98832.81
2023-03-04T11:21:01.924Z,98820.06
2023-03-04T11:24:27.474Z,98827.28
2023-03-04T11:27:45.724Z,98813.03
2023-03-04T11:30:53.209Z,98820.50
2023-03-04T11:34:02.440Z,98820.41
2023-03-04T11:37:10.648Z,98820.88
2023-03-04T11:40:35.005Z,98810.63
2023-03-04T11:43:40.181Z,98807.00
2023-03-04T11:47:16.806Z,98805.72
2023-03-04T11:50:29.010Z,98801.59
2023-03-04T11:53:41.833Z,98803.88
2023-03-04T11:56:48.817Z,98802.66
2023-03-04T12:00:04.483Z,98799.53
2023-03-04T12:03:33.586Z,98806.81
2023-03-04T12:06:45.413Z,98794.50
2023-03-04T12:10:05.013Z,98784.56
2023-03-04T12:13:52.372Z,98779.84
2023-03-04T12:17:17.041Z,98773.47
2023-03-04T12:20:42.389Z,98770.81
2023-03-04T12:24:11.620Z,98771.34
2023-03-04T12:27:23.020Z,98761.97
2023-03-04T12:30:41.466Z,98759.25
2023-03-04T12:33:58.486Z,98759.59
2023-03-04T12:37:35.709Z,98756.00
2023-03-04T12:40:45.462Z,98743.81
2023-03-04T12:43:58.257Z,98746.72
2023-03-04T12:47:21.600Z,98745.06
2023-03-04T12:50:38.144Z,98740.28
2023-03-04T12:53:49.279Z,98741.91
2023-03-04T12:56:56.438Z,98737.19
2023-03-04T13:00:05.955Z,98737.75
2023-03-04T13:03:16.767Z,98728.56
2023-03-04T13:06:35.820Z,98735.03
2023-03-04T13:09:48.489Z,98731.88
2023-03-04T13:12:53.524Z,98733.50
2023-03-04T13:16:03.354Z,98718.44
2023-03-04T13:19:47.696Z,98730.03
2023-03-04T13:22:57.295Z,98725.72
2023-03-04T13:26:22.415Z,98724.06
2023-03-04T13:29:37.154Z,98725.31
2023-03-04T13:32:43.237Z,98726.03
2023-03-04T13:35:52.708Z,98722.41
2023-03-04T13:39:01.616Z,98717.03
2023-03-04T13:42:44.097Z,98719.75
2023-03-04T13:45:47.008Z,98722.41
2023-03-04T13:49:03.965Z,98725.44
2023-03-04T13:52:44.481Z,98716.28
2023-03-04T13:56:08.076Z,98715.84
2023-03-04T13:59:25.544Z,98716.81
2023-03-04T14:02:34.710Z,98725.38
2023-03-04T14:05:37.481Z,98723.31
2023-03-04T14:08:40.487Z,98722.25
2023-03-04T14:11:45.375Z,98715.63
2023-03-04T14:14:52.576Z,98721.16
2023-03-04T14:17:57.154Z,98711.78
2023-03-04T14:21:01.604Z,98704.13
2023-03-04T14:24:08.470Z,98705.16
2023-03-04T14:27:15.267Z,98702.88
2023-03-04T14:30:39.093Z,98697.91
2023-03-04T14:33:47.777Z,98705.81
2023-03-04T14:36:51.005Z,98691.59
2023-03-04T14:39:57.416Z,98701.09
2023-03-04T14:43:06.365Z,98695.78
2023-03-04T14:46:14.515Z,98687.22
2023-03-04T14:49:18.199Z,98682.63
2023-03-04T14:52:32.966Z,98685.59
2023-03-04T14:55:36.806Z,98682.63
2023-03-04T14:58:54.596Z,98673.06
2023-03-04T15:02:18.272Z,98674.59
2023-03-04T15:05:26.570Z,98669.41
2023-03-04T15:08:38.775Z,98665.34
2023-03-04T15:11:48.042Z,98668.94
2023-03-04T15:14:54.783Z,98668.72
2023-03-04T15:18:01.553Z,98675.44
2023-03-04T15:21:07.484Z,98673.59
2023-03-04T15:24:13.616Z,98676.25
2023-03-04T15:27:17.562Z,98669.88
2023-03-04T15:30:24.768Z,98676.97
2023-03-04T15:33:27.765Z,98668.63
2023-03-04T15:36:30.546Z,98672.91
2023-03-04T15:39:34.044Z,98673.34
2023-03-04T15:42:36.921Z,98668.28
2023-03-04T15:45:41.377Z,98672.91
2023-03-04T15:48:45.472Z,98669.13
2023-03-04T15:51:50.307Z,98664.94
2023-03-04T15:54:53.170Z,98655.13
2023-03-04T15:57:57.825Z,98663.09
2023-03-04T16:01:02.230Z,98666.09
2023-03-04T16:04:05.425Z,98667.03
2023-03-04T16:07:08.640Z,98661.31
2023-03-04T16:10:19.347Z,98664.38
2023-03-04T16:13:24.239Z,98663.38
2023-03-04T16:16:28.542Z,98667.63
2023-03-04T16:19:31.651Z,98671.88
2023-03-04T16:22:34.730Z,98671.00
2023-03-04T16:25:37.929Z,98675.72
2023-03-04T16:28:41.037Z,98667.81
2023-03-04T16:31:45.510Z,98670.25
2023-03-04T16:34:50.429Z,98659.31
2023-03-04T16:37:53.665Z,98658.78
2023-03-04T16:40:57.832Z,98663.16
2023-03-04T16:44:01.572Z,98661.19
2023-03-04T16:47:07.728Z,98666.28
2023-03-04T16:50:14.630Z,98663.97
2023-03-04T16:53:26.013Z,98672.59
2023-03-04T16:56:29.249Z,98655.53
2023-03-04T16:59:32.343Z,98669.41
2023-03-04T17:02:36.906Z,98664.16
2023-03-04T17:05:39.810Z,98660.25
2023-03-04T17:08:42.834Z,98664.50
2023-03-04T17:11:46.292Z,98665.75
2023-03-04T17:14:49.466Z,98664.09
2023-03-04T17:17:54.087Z,98664.44
2023-03-04T17:21:03.376Z,98668.13
2023-03-04T17:24:11.054Z,98665.81
2023-03-04T17:27:14.391Z,98672.25
2023-03-04T17:30:17.605Z,98678.84
2023-03-04T17:33:22.304Z,98677.72
2023-03-04T17:36:25.189Z,98681.69
2023-03-04T17:39:28.060Z,98680.44
2023-03-04T17:42:30.888Z,98676.88
2023-03-04T17:45:33.705Z,98672.75
2023-03-04T17:48:38.241Z,98675.97
2023-03-04T17:51:43.931Z,98682.31
2023-03-04T17:54:47.450Z,98678.38
2023-03-04T17:57:52.987Z,98676.50
2023-03-04T18:01:02.060Z,98673.84
2023-03-04T18:04:06.399Z,98679.75
2023-03-04T18:07:09.641Z,98673.06
2023-03-04T18:10:13.165Z,98665.16
2023-03-04T18:13:16.296Z,98666.56
2023-03-04T18:16:23.514Z,98664.13
2023-03-04T18:19:28.315Z,98677.19
2023-03-04T18:22:31.625Z,98664.44
2023-03-04T18:25:34.444Z,98663.09
2023-03-04T18:28:37.396Z,98656.66
2023-03-04T18:31:41.547Z,98656.34
2023-03-04T18:34:45.747Z,98652.28
2023-03-04T18:37:49.177Z,98645.34
2023-03-04T18:40:53.083Z,98653.09
2023-03-04T18:43:56.175Z,98649.94
2023-03-04T18:46:59.410Z,98645.66
2023-03-04T18:50:03.758Z,98648.91
2023-03-04T18:53:06.656Z,98647.28
2023-03-04T18:56:14.733Z,98652.88
2023-03-04T18:59:21.235Z,98658.72
2023-03-04T19:02:28.494Z,98658.13
2023-03-04T19:05:34.020Z,98644.84
2023-03-04T19:08:36.952Z,98648.19
2023-03-04T19:11:39.714Z,98633.19
2023-03-04T19:14:42.392Z,98643.31
2023-03-04T19:17:46.272Z,98652.53
2023-03-04T19:20:50.684Z,98654.34
2023-03-04T19:23:53.754Z,98644.75
2023-03-04T19:26:56.516Z,98640.84
2023-03-04T19:29:59.504Z,98642.84
2023-03-04T19:33:02.468Z,98636.84
2023-03-04T19:36:08.377Z,98637.06
2023-03-04T19:39:11.614Z,98634.63
2023-03-04T19:42:14.719Z,98630.56
2023-03-04T19:45:17.890Z,98632.72
2023-03-04T19:48:20.694Z,98630.53
2023-03-04T19:51:27.135Z,98632.88
2023-03-04T19:54:30.632Z,98628.88
2023-03-04T19:57:34.100Z,98631.44
2023-03-04T20:00:37.119Z,98626.41
2023-03-04T20:03:40.070Z,98623.63
2023-03-04T20:06:47.121Z,98623.63
2023-03-04T20:09:50.266Z,98624.91
2023-03-04T20:12:53.455Z,98627.34
2023-03-04T20:15:56.341Z,98626.41
2023-03-04T20:18:59.806Z,98628.59
2023-03-04T20:22:07.052Z,98628.25
2023-03-04T20:25:10.432Z,98619.50
2023-03-04T20:28:13.300Z,98619.06
2023-03-04T20:31:20.695Z,98621.91
2023-03-04T20:34:23.839Z,98606.56
2023-03-04T20:37:28.014Z,98613.75
2023-03-04T20:40:30.699Z,98611.78
2023-03-04T20:43:33.634Z,98613.28
2023-03-04T20:46:41.279Z,98604.81
2023-03-04T20:49:44.664Z,98604.44
2023-03-04T20:52:49.007Z,98603.44
2023-03-04T20:55:52.859Z,98588.75
2023-03-04T20:58:56.851Z,98592.00
2023-03-04T21:01:59.976Z,98596.00
2023-03-04T21:05:03.034Z,98607.44
2023-03-04T21:08:07.530Z,98606.63
2023-03-04T21:11:12.394Z,98602.50
2023-03-04T21:14:19.263Z,98599.13
2023-03-04T21:17:22.168Z,98596.94
2023-03-04T21:20:25.153Z,98597.63
2023-03-04T21:23:29.319Z,98599.03
2023-03-04T21:26:32.511Z,98592.88
2023-03-04T21:29:35.445Z,98597.38
2023-03-04T21:32:38.479Z,98591.94
2023-03-04T21:35:41.554Z,98585.16
2023-03-04T21:38:46.693Z,98584.34
2023-03-04T21:41:49.859Z,98582.38
2023-03-04T21:44:52.672Z,98587.63
2023-03-04T21:47:55.561Z,98576.91
2023-03-04T21:51:02.852Z,98588.78
2023-03-04T21:54:07.681Z,98583.47
2023-03-04T21:57:10.694Z,98580.03
2023-03-04T22:00:15.655Z,98572.25
2023-03-04T22:03:19.053Z,98572.72
2023-03-04T22:06:24.269Z,98559.75
2023-03-04T22:09:28.400Z,98565.59
2023-03-04T22:12:31.116Z,98562.41
2023-03-04T22:15:33.998Z,98564.41
2023-03-04T22:18:39.835Z,98568.56
2023-03-04T22:21:42.642Z,98554.22
2023-03-04T22:24:46.801Z,98560.13
2023-03-04T22:27:49.630Z,98549.06
2023-03-04T22:30:52.911Z,98553.44
2023-03-04T22:33:55.679Z,98545.91
2023-03-04T22:36:58.379Z,98543.72
2023-03-04T22:40:02.603Z,98536.63
2023-03-04T22:43:05.405Z,98537.13
2023-03-04T22:46:19.562Z,98533.88
2023-03-04T22:49:22.412Z,98535.50
2023-03-04T22:52:25.209Z,98536.44
2023-03-04T22:55:29.330Z,98535.63
2023-03-04T22:58:32.224Z,98535.63
2023-03-04T23:01:35.004Z,98536.22
2023-03-04T23:04:37.735Z,98540.75
2023-03-04T23:07:41.176Z,98533.13
2023-03-04T23:10:45.323Z,98537.50
2023-03-04T23:13:48.880Z,98526.84
2023-03-04T23:16:51.964Z,98530.66
2023-03-04T23:19:54.891Z,98530.19
2023-03-04T23:22:57.694Z,98522.13
2023-03-04T23:26:02.382Z,98528.78
2023-03-04T23:29:06.789Z,98526.72
2023-03-04T23:32:09.792Z,98527.31
2023-03-04T23:35:12.735Z,98527.22
2023-03-04T23:38:15.703Z,98519.25
2023-03-04T23:41:21.966Z,98522.69
2023-03-04T23:44:25.101Z,98524.38
2023-03-04T23:47:28.016Z,98517.72
2023-03-04T23:50:32.203Z,98523.22
2023-03-04T23:53:35.191Z,98518.72
2023-03-04T23:56:39.535Z,98509.16
2023-03-04T23:59:42.307Z,98510.75
